Weather at Quamichan Lake (Raven Field) Seaplane Base

Public forecast

Using degrees Celsius for public forecast. Weather courtesy of forecast.io.

Closest aviation weather report (METAR) to Quamichan Lake (Raven Field) Seaplane Base

Closest report is Victoria International Airport, 13.1 nm (24.2 km) SE.

2024/05/18 22:21 (retrieved 29 minutes ago)

CYYJ 182221Z 31009KT 300V010 20SM -SHRA FEW026TCU BKN048 BKN110 11/06 A3006 RMK TCU2SC4AC1 SLP183

Closest aviation forecast (TAF) to Quamichan Lake (Raven Field) Seaplane Base

Closest forecast is Victoria International Airport, 13.1 nm (24.2 km) SE.

2024/05/18 20:41 Ammendment (retrieved 2 hours ago)

TAF AMD CYYJ 182037Z 1820/1918 07010KT P6SM FEW025 BKN140 TEMPO 1820/1903 5SM -SHRA BR BKN020 FM190300 22007KT P6SM SCT050 BECMG 1904/1906 20007KT FM190900 19006KT P6SM BKN030 TEMPO 1909/1918 P6SM -SHRA BKN020 RMK NXT FCST BY 190000Z